sensor_id;sensor_type;location;lat;lon;timestamp;pressure;altitude;pressure_sealevel;temperature;humidity
69239;BME280;56349;51.816;-0.026;2023-08-06T00:01:17;100564.14;;;24.73;35.36
69239;BME280;56349;51.816;-0.026;2023-08-06T00:03:43;100563.10;;;24.44;35.45
69239;BME280;56349;51.816;-0.026;2023-08-06T00:06:09;100562.81;;;24.60;35.51
69239;BME280;56349;51.816;-0.026;2023-08-06T00:08:35;100562.74;;;24.54;35.51
69239;BME280;56349;51.816;-0.026;2023-08-06T00:11:01;100563.60;;;24.49;35.59
69239;BME280;56349;51.816;-0.026;2023-08-06T00:13:27;100567.27;;;24.22;35.68
69239;BME280;56349;51.816;-0.026;2023-08-06T00:15:53;100571.29;;;24.40;35.74
69239;BME280;56349;51.816;-0.026;2023-08-06T00:18:19;100575.76;;;24.38;35.76
69239;BME280;56349;51.816;-0.026;2023-08-06T00:20:45;100577.58;;;24.59;35.80
69239;BME280;56349;51.816;-0.026;2023-08-06T00:23:11;100577.92;;;24.55;35.83
69239;BME280;56349;51.816;-0.026;2023-08-06T00:25:37;100577.86;;;24.03;35.84
69239;BME280;56349;51.816;-0.026;2023-08-06T00:28:03;100577.00;;;24.23;35.91
69239;BME280;56349;51.816;-0.026;2023-08-06T00:30:28;100576.56;;;23.98;35.95
69239;BME280;56349;51.816;-0.026;2023-08-06T00:32:54;100580.23;;;24.16;35.98
69239;BME280;56349;51.816;-0.026;2023-08-06T00:35:31;100576.73;;;23.88;36.07
69239;BME280;56349;51.816;-0.026;2023-08-06T00:37:45;100573.27;;;24.07;36.12
69239;BME280;56349;51.816;-0.026;2023-08-06T00:40:11;100577.48;;;24.05;36.12
69239;BME280;56349;51.816;-0.026;2023-08-06T00:42:37;100575.06;;;24.03;36.09
69239;BME280;56349;51.816;-0.026;2023-08-06T00:45:04;100575.47;;;23.99;36.19
69239;BME280;56349;51.816;-0.026;2023-08-06T00:47:29;100584.56;;;24.22;36.19
69239;BME280;56349;51.816;-0.026;2023-08-06T00:49:54;100588.67;;;23.91;36.23
69239;BME280;56349;51.816;-0.026;2023-08-06T00:52:20;100593.24;;;24.12;36.33
69239;BME280;56349;51.816;-0.026;2023-08-06T00:54:46;100599.29;;;23.80;36.38
69239;BME280;56349;51.816;-0.026;2023-08-06T00:57:12;100605.12;;;23.76;36.42
69239;BME280;56349;51.816;-0.026;2023-08-06T00:59:39;100605.36;;;23.75;36.46
69239;BME280;56349;51.816;-0.026;2023-08-06T01:02:04;100603.62;;;23.98;36.49
69239;BME280;56349;51.816;-0.026;2023-08-06T01:04:29;100603.29;;;24.16;36.48
69239;BME280;56349;51.816;-0.026;2023-08-06T01:07:03;100608.85;;;23.92;36.49
69239;BME280;56349;51.816;-0.026;2023-08-06T01:09:30;100607.30;;;23.62;36.48
69239;BME280;56349;51.816;-0.026;2023-08-06T01:11:52;100614.82;;;24.09;36.51
69239;BME280;56349;51.816;-0.026;2023-08-06T01:14:16;100620.22;;;23.86;36.48
69239;BME280;56349;51.816;-0.026;2023-08-06T01:16:35;100621.63;;;23.60;36.51
69239;BME280;56349;51.816;-0.026;2023-08-06T01:19:00;100622.32;;;24.10;36.47
69239;BME280;56349;51.816;-0.026;2023-08-06T01:21:26;100628.14;;;23.85;36.47
69239;BME280;56349;51.816;-0.026;2023-08-06T01:23:52;100633.98;;;23.54;36.49
69239;BME280;56349;51.816;-0.026;2023-08-06T01:26:26;100633.86;;;23.77;36.55
69239;BME280;56349;51.816;-0.026;2023-08-06T01:29:10;100638.83;;;23.95;36.67
69239;BME280;56349;51.816;-0.026;2023-08-06T01:31:14;100640.00;;;23.43;36.70
69239;BME280;56349;51.816;-0.026;2023-08-06T01:33:34;100644.88;;;23.69;36.63
69239;BME280;56349;51.816;-0.026;2023-08-06T01:36:01;100647.69;;;23.65;36.67
69239;BME280;56349;51.816;-0.026;2023-08-06T01:38:25;100649.41;;;23.85;36.73
69239;BME280;56349;51.816;-0.026;2023-08-06T01:40:51;100650.57;;;23.81;36.79
69239;BME280;56349;51.816;-0.026;2023-08-06T01:43:17;100651.03;;;23.76;36.75
69239;BME280;56349;51.816;-0.026;2023-08-06T01:45:43;100656.55;;;23.72;36.79
69239;BME280;56349;51.816;-0.026;2023-08-06T01:48:09;100654.10;;;23.48;36.82
69239;BME280;56349;51.816;-0.026;2023-08-06T01:50:35;100665.86;;;23.45;36.80
69239;BME280;56349;51.816;-0.026;2023-08-06T01:53:01;100668.68;;;23.41;36.85
69239;BME280;56349;51.816;-0.026;2023-08-06T01:55:29;100672.93;;;23.12;36.87
69239;BME280;56349;51.816;-0.026;2023-08-06T01:57:52;100678.98;;;23.60;36.80
69239;BME280;56349;51.816;-0.026;2023-08-06T02:00:18;100679.11;;;23.37;36.85
69239;BME280;56349;51.816;-0.026;2023-08-06T02:02:45;100681.07;;;23.35;36.81
69239;BME280;56349;51.816;-0.026;2023-08-06T02:05:11;100685.07;;;23.34;36.83
69239;BME280;56349;51.816;-0.026;2023-08-06T02:07:37;100683.46;;;23.56;36.76
69239;BME280;56349;51.816;-0.026;2023-08-06T02:10:03;100688.69;;;23.32;36.78
69239;BME280;56349;51.816;-0.026;2023-08-06T02:12:28;100692.50;;;23.30;36.81
69239;BME280;56349;51.816;-0.026;2023-08-06T02:14:53;100691.27;;;23.48;36.86
69239;BME280;56349;51.816;-0.026;2023-08-06T02:17:20;100689.84;;;23.23;36.87
69239;BME280;56349;51.816;-0.026;2023-08-06T02:19:46;100690.61;;;23.20;36.90
69239;BME280;56349;51.816;-0.026;2023-08-06T02:22:12;100691.33;;;23.39;36.93
69239;BME280;56349;51.816;-0.026;2023-08-06T02:24:37;100689.72;;;23.37;36.93
69239;BME280;56349;51.816;-0.026;2023-08-06T02:27:04;100691.57;;;23.36;36.95
69239;BME280;56349;51.816;-0.026;2023-08-06T02:29:28;100693.60;;;23.34;36.97
69239;BME280;56349;51.816;-0.026;2023-08-06T02:31:54;100692.71;;;23.30;36.94
69239;BME280;56349;51.816;-0.026;2023-08-06T02:34:20;100698.71;;;23.28;36.93
69239;BME280;56349;51.816;-0.026;2023-08-06T02:36:46;100697.65;;;23.26;36.99
69239;BME280;56349;51.816;-0.026;2023-08-06T02:39:12;100698.72;;;23.25;36.89
69239;BME280;56349;51.816;-0.026;2023-08-06T02:41:39;100703.64;;;23.25;36.93
69239;BME280;56349;51.816;-0.026;2023-08-06T02:44:05;100700.60;;;23.01;36.85
69239;BME280;56349;51.816;-0.026;2023-08-06T02:46:31;100701.50;;;23.21;36.93
69239;BME280;56349;51.816;-0.026;2023-08-06T02:48:57;100694.24;;;23.20;36.95
69239;BME280;56349;51.816;-0.026;2023-08-06T02:51:23;100695.55;;;23.18;36.97
69239;BME280;56349;51.816;-0.026;2023-08-06T02:53:49;100700.06;;;22.93;36.99
69239;BME280;56349;51.816;-0.026;2023-08-06T02:56:15;100699.35;;;23.13;37.01
69239;BME280;56349;51.816;-0.026;2023-08-06T02:58:41;100694.04;;;23.13;36.99
69239;BME280;56349;51.816;-0.026;2023-08-06T03:01:07;100692.69;;;23.10;36.91
69239;BME280;56349;51.816;-0.026;2023-08-06T03:03:33;100696.41;;;23.34;36.92
69239;BME280;56349;51.816;-0.026;2023-08-06T03:05:58;100694.58;;;23.53;36.94
69239;BME280;56349;51.816;-0.026;2023-08-06T03:08:25;100699.84;;;23.03;36.98
69239;BME280;56349;51.816;-0.026;2023-08-06T03:10:50;100699.49;;;23.02;36.89
69239;BME280;56349;51.816;-0.026;2023-08-06T03:13:16;100698.61;;;23.00;36.93
69239;BME280;56349;51.816;-0.026;2023-08-06T03:15:41;100695.83;;;22.98;36.90
69239;BME280;56349;51.816;-0.026;2023-08-06T03:18:07;100700.38;;;22.96;36.93
69239;BME280;56349;51.816;-0.026;2023-08-06T03:20:33;100703.01;;;22.93;36.94
69239;BME280;56349;51.816;-0.026;2023-08-06T03:22:59;100707.87;;;22.90;37.00
69239;BME280;56349;51.816;-0.026;2023-08-06T03:25:25;100715.51;;;22.87;37.04
69239;BME280;56349;51.816;-0.026;2023-08-06T03:27:51;100712.75;;;22.85;37.04
69239;BME280;56349;51.816;-0.026;2023-08-06T03:30:17;100710.88;;;22.85;37.08
69239;BME280;56349;51.816;-0.026;2023-08-06T03:32:42;100714.83;;;22.88;37.11
69239;BME280;56349;51.816;-0.026;2023-08-06T03:35:08;100716.16;;;22.94;37.16
69239;BME280;56349;51.816;-0.026;2023-08-06T03:37:33;100720.33;;;23.07;37.02
69239;BME280;56349;51.816;-0.026;2023-08-06T03:39:58;100724.56;;;23.25;36.89
69239;BME280;56349;51.816;-0.026;2023-08-06T03:42:24;100723.93;;;23.23;36.69
69239;BME280;56349;51.816;-0.026;2023-08-06T03:44:50;100721.84;;;23.47;36.42
69239;BME280;56349;51.816;-0.026;2023-08-06T03:47:16;100721.10;;;23.73;36.07
69239;BME280;56349;51.816;-0.026;2023-08-06T03:49:42;100722.53;;;24.03;35.71
69239;BME280;56349;51.816;-0.026;2023-08-06T03:52:08;100721.28;;;24.00;35.31
69239;BME280;56349;51.816;-0.026;2023-08-06T03:54:34;100721.41;;;24.18;35.00
69239;BME280;56349;51.816;-0.026;2023-08-06T03:56:59;100723.12;;;24.30;34.73
69239;BME280;56349;51.816;-0.026;2023-08-06T03:59:25;100724.69;;;24.37;34.52
69239;BME280;56349;51.816;-0.026;2023-08-06T04:01:51;100727.87;;;24.36;34.40
69239;BME280;56349;51.816;-0.026;2023-08-06T04:04:17;100731.96;;;24.08;34.31
69239;BME280;56349;51.816;-0.026;2023-08-06T04:06:43;100734.84;;;24.01;34.32
69239;BME280;56349;51.816;-0.026;2023-08-06T04:09:09;100738.33;;;24.14;34.33
69239;BME280;56349;51.816;-0.026;2023-08-06T04:11:35;100736.45;;;24.29;34.43
69239;BME280;56349;51.816;-0.026;2023-08-06T04:14:01;100740.26;;;23.93;34.50
69239;BME280;56349;51.816;-0.026;2023-08-06T04:16:28;100740.33;;;24.32;34.60
69239;BME280;56349;51.816;-0.026;2023-08-06T04:18:53;100742.77;;;23.74;34.67
69239;BME280;56349;51.816;-0.026;2023-08-06T04:21:18;100748.94;;;24.15;34.67
69239;BME280;56349;51.816;-0.026;2023-08-06T04:23:44;100752.55;;;23.82;34.78
69239;BME280;56349;51.816;-0.026;2023-08-06T04:26:09;100752.81;;;23.73;34.82
69239;BME280;56349;51.816;-0.026;2023-08-06T04:28:35;100754.24;;;23.88;34.95
69239;BME280;56349;51.816;-0.026;2023-08-06T04:31:01;100758.39;;;23.80;34.99
69239;BME280;56349;51.816;-0.026;2023-08-06T04:33:27;100762.49;;;23.49;35.07
69239;BME280;56349;51.816;-0.026;2023-08-06T04:35:59;100766.80;;;23.40;35.13
69239;BME280;56349;51.816;-0.026;2023-08-06T04:38:19;100770.97;;;23.56;35.21
69239;BME280;56349;51.816;-0.026;2023-08-06T04:40:45;100771.58;;;23.26;35.27
69239;BME280;56349;51.816;-0.026;2023-08-06T04:43:11;100772.90;;;23.40;35.35
69239;BME280;56349;51.816;-0.026;2023-08-06T04:45:37;100777.01;;;23.32;35.49
69239;BME280;56349;51.816;-0.026;2023-08-06T04:48:03;100775.92;;;23.26;35.55
69239;BME280;56349;51.816;-0.026;2023-08-06T04:50:28;100779.42;;;23.21;35.57
69239;BME280;56349;51.816;-0.026;2023-08-06T04:52:54;100777.43;;;23.15;35.67
69239;BME280;56349;51.816;-0.026;2023-08-06T04:55:20;100778.26;;;22.87;35.72
69239;BME280;56349;51.816;-0.026;2023-08-06T04:57:46;100782.54;;;23.05;35.76
69239;BME280;56349;51.816;-0.026;2023-08-06T05:00:12;100783.96;;;23.00;35.79
69239;BME280;56349;51.816;-0.026;2023-08-06T05:02:37;100787.10;;;22.95;35.86
69239;BME280;56349;51.816;-0.026;2023-08-06T05:05:04;100789.47;;;22.90;35.87
69239;BME280;56349;51.816;-0.026;2023-08-06T05:07:32;100798.19;;;22.88;35.93
69239;BME280;56349;51.816;-0.026;2023-08-06T05:09:55;100803.18;;;22.86;35.93
69239;BME280;56349;51.816;-0.026;2023-08-06T05:12:21;100809.06;;;22.82;35.98
69239;BME280;56349;51.816;-0.026;2023-08-06T05:14:47;100811.75;;;22.78;36.02
69239;BME280;56349;51.816;-0.026;2023-08-06T05:17:13;100810.80;;;23.01;36.04
69239;BME280;56349;51.816;-0.026;2023-08-06T05:19:39;100815.28;;;22.70;36.09
69239;BME280;56349;51.816;-0.026;2023-08-06T05:22:05;100815.85;;;22.65;36.14
69239;BME280;56349;51.816;-0.026;2023-08-06T05:24:31;100818.70;;;23.11;36.15
69239;BME280;56349;51.816;-0.026;2023-08-06T05:26:57;100822.85;;;22.61;36.12
69239;BME280;56349;51.816;-0.026;2023-08-06T05:29:23;100822.82;;;22.59;36.15
69239;BME280;56349;51.816;-0.026;2023-08-06T05:31:49;100826.39;;;22.57;36.18
69239;BME280;56349;51.816;-0.026;2023-08-06T05:34:15;100828.39;;;22.80;36.26
69239;BME280;56349;51.816;-0.026;2023-08-06T05:36:40;100832.86;;;22.53;36.21
69239;BME280;56349;51.816;-0.026;2023-08-06T05:39:06;100834.65;;;22.76;36.19
69239;BME280;56349;51.816;-0.026;2023-08-06T05:41:32;100838.81;;;22.71;36.24
69239;BME280;56349;51.816;-0.026;2023-08-06T05:43:58;100836.28;;;22.41;36.25
69239;BME280;56349;51.816;-0.026;2023-08-06T05:46:24;100845.71;;;22.43;36.20
69239;BME280;56349;51.816;-0.026;2023-08-06T05:48:50;100845.93;;;22.72;36.31
69239;BME280;56349;51.816;-0.026;2023-08-06T05:51:16;100851.35;;;22.71;36.37
69239;BME280;56349;51.816;-0.026;2023-08-06T05:53:42;100854.79;;;22.76;36.51
69239;BME280;56349;51.816;-0.026;2023-08-06T05:56:08;100861.01;;;22.56;36.43
69239;BME280;56349;51.816;-0.026;2023-08-06T05:58:34;100862.67;;;22.63;36.36
69239;BME280;56349;51.816;-0.026;2023-08-06T06:00:59;100862.63;;;22.67;36.31
69239;BME280;56349;51.816;-0.026;2023-08-06T06:03:26;100866.64;;;22.71;36.29
69239;BME280;56349;51.816;-0.026;2023-08-06T06:05:51;100866.97;;;22.75;36.23
69239;BME280;56349;51.816;-0.026;2023-08-06T06:08:23;100868.35;;;22.80;36.24
69239;BME280;56349;51.816;-0.026;2023-08-06T06:10:43;100866.21;;;22.84;36.21
69239;BME280;56349;51.816;-0.026;2023-08-06T06:13:09;100869.55;;;22.87;36.20
69239;BME280;56349;51.816;-0.026;2023-08-06T06:15:35;100875.67;;;22.88;36.19
69239;BME280;56349;51.816;-0.026;2023-08-06T06:18:01;100883.45;;;22.87;36.24
69239;BME280;56349;51.816;-0.026;2023-08-06T06:20:27;100884.64;;;22.86;36.23
69239;BME280;56349;51.816;-0.026;2023-08-06T06:22:53;100887.96;;;22.85;36.24
69239;BME280;56349;51.816;-0.026;2023-08-06T06:25:19;100886.26;;;22.84;36.30
69239;BME280;56349;51.816;-0.026;2023-08-06T06:27:45;100890.26;;;22.83;36.30
69239;BME280;56349;51.816;-0.026;2023-08-06T06:30:11;100890.88;;;22.81;36.36
69239;BME280;56349;51.816;-0.026;2023-08-06T06:32:37;100891.09;;;22.73;36.41
69239;BME280;56349;51.816;-0.026;2023-08-06T06:35:04;100891.38;;;22.91;36.52
69239;BME280;56349;51.816;-0.026;2023-08-06T06:37:29;100895.05;;;22.60;36.56
69239;BME280;56349;51.816;-0.026;2023-08-06T06:39:55;100896.74;;;22.57;36.54
69239;BME280;56349;51.816;-0.026;2023-08-06T06:42:21;100903.57;;;22.79;36.64
69239;BME280;56349;51.816;-0.026;2023-08-06T06:44:47;100906.29;;;22.74;36.67
69239;BME280;56349;51.816;-0.026;2023-08-06T06:47:13;100904.93;;;22.43;36.62
69239;BME280;56349;51.816;-0.026;2023-08-06T06:49:39;100903.50;;;22.41;36.67
69239;BME280;56349;51.816;-0.026;2023-08-06T06:52:05;100912.11;;;22.65;36.71
69239;BME280;56349;51.816;-0.026;2023-08-06T06:54:30;100912.44;;;22.62;36.75
69239;BME280;56349;51.816;-0.026;2023-08-06T06:56:56;100917.75;;;22.83;36.80
69239;BME280;56349;51.816;-0.026;2023-08-06T06:59:22;100918.44;;;22.33;36.87
69239;BME280;56349;51.816;-0.026;2023-08-06T07:01:48;100923.73;;;22.79;36.92
69239;BME280;56349;51.816;-0.026;2023-08-06T07:04:14;100923.09;;;22.29;36.95
69239;BME280;56349;51.816;-0.026;2023-08-06T07:06:39;100925.27;;;22.78;36.96
69239;BME280;56349;51.816;-0.026;2023-08-06T07:09:04;100924.43;;;22.30;36.94
69239;BME280;56349;51.816;-0.026;2023-08-06T07:11:30;100925.85;;;22.55;36.97
69239;BME280;56349;51.816;-0.026;2023-08-06T07:13:57;100929.98;;;22.78;37.03
69239;BME280;56349;51.816;-0.026;2023-08-06T07:16:22;100929.64;;;22.37;37.05
69239;BME280;56349;51.816;-0.026;2023-08-06T07:18:48;100929.64;;;22.71;37.14
69239;BME280;56349;51.816;-0.026;2023-08-06T07:21:14;100930.48;;;22.54;37.18
69239;BME280;56349;51.816;-0.026;2023-08-06T07:23:40;100932.19;;;22.69;37.22
69239;BME280;56349;51.816;-0.026;2023-08-06T07:26:06;100942.18;;;22.85;37.27
69239;BME280;56349;51.816;-0.026;2023-08-06T07:28:32;100945.36;;;23.12;37.29
69239;BME280;56349;51.816;-0.026;2023-08-06T07:30:58;100942.34;;;23.28;37.11
69239;BME280;56349;51.816;-0.026;2023-08-06T07:33:26;100938.99;;;23.43;36.73
69239;BME280;56349;51.816;-0.026;2023-08-06T07:35:49;100935.47;;;23.86;36.19
69239;BME280;56349;51.816;-0.026;2023-08-06T07:38:15;100939.67;;;23.85;35.81
69239;BME280;56349;51.816;-0.026;2023-08-06T07:40:41;100938.87;;;24.29;35.39
69239;BME280;56349;51.816;-0.026;2023-08-06T07:43:08;100942.07;;;24.66;34.96
69239;BME280;56349;51.816;-0.026;2023-08-06T07:45:33;100944.65;;;24.92;34.65
69239;BME280;56349;51.816;-0.026;2023-08-06T07:47:58;100948.20;;;24.96;34.28
69239;BME280;56349;51.816;-0.026;2023-08-06T07:50:24;100947.04;;;25.23;33.88
69239;BME280;56349;51.816;-0.026;2023-08-06T07:52:50;100945.45;;;25.50;33.54
69239;BME280;56349;51.816;-0.026;2023-08-06T07:55:16;100949.29;;;25.52;33.16
69239;BME280;56349;51.816;-0.026;2023-08-06T07:57:42;100954.37;;;25.70;32.79
69239;BME280;56349;51.816;-0.026;2023-08-06T08:00:09;100954.57;;;25.81;32.49
69239;BME280;56349;51.816;-0.026;2023-08-06T08:02:34;100956.61;;;25.84;32.34
69239;BME280;56349;51.816;-0.026;2023-08-06T08:05:09;100956.44;;;25.80;32.40
69239;BME280;56349;51.816;-0.026;2023-08-06T08:07:25;100960.77;;;25.72;32.44
69239;BME280;56349;51.816;-0.026;2023-08-06T08:09:51;100964.41;;;25.81;32.41
69239;BME280;56349;51.816;-0.026;2023-08-06T08:12:17;100961.68;;;25.62;32.48
69239;BME280;56349;51.816;-0.026;2023-08-06T08:14:44;100965.74;;;25.69;32.55
69239;BME280;56349;51.816;-0.026;2023-08-06T08:17:10;100964.45;;;25.49;32.63
69239;BME280;56349;51.816;-0.026;2023-08-06T08:19:36;100966.46;;;25.32;32.67
69239;BME280;56349;51.816;-0.026;2023-08-06T08:22:01;100968.38;;;25.12;32.74
69239;BME280;56349;51.816;-0.026;2023-08-06T08:24:27;100969.05;;;25.15;32.86
69239;BME280;56349;51.816;-0.026;2023-08-06T08:26:53;100971.67;;;24.76;33.04
69239;BME280;56349;51.816;-0.026;2023-08-06T08:29:20;100971.33;;;24.81;33.17
69239;BME280;56349;51.816;-0.026;2023-08-06T08:31:43;100971.93;;;24.64;33.32
69239;BME280;56349;51.816;-0.026;2023-08-06T08:34:09;100968.65;;;24.70;33.44
69239;BME280;56349;51.816;-0.026;2023-08-06T08:36:35;100969.48;;;24.09;33.59
69239;BME280;56349;51.816;-0.026;2023-08-06T08:39:02;100972.19;;;24.43;33.74
69239;BME280;56349;51.816;-0.026;2023-08-06T08:41:32;100969.73;;;24.30;33.88
69239;BME280;56349;51.816;-0.026;2023-08-06T08:43:53;100976.24;;;24.19;34.00
69239;BME280;56349;51.816;-0.026;2023-08-06T08:46:19;100973.15;;;24.07;34.10
69239;BME280;56349;51.816;-0.026;2023-08-06T08:48:44;100976.24;;;23.96;34.19
69239;BME280;56349;51.816;-0.026;2023-08-06T08:51:10;100982.79;;;24.11;34.28
69239;BME280;56349;51.816;-0.026;2023-08-06T08:53:35;100982.88;;;24.23;34.38
69239;BME280;56349;51.816;-0.026;2023-08-06T08:56:00;100985.52;;;23.93;34.44
69239;BME280;56349;51.816;-0.026;2023-08-06T08:58:25;100980.03;;;23.86;34.46
69239;BME280;56349;51.816;-0.026;2023-08-06T09:00:52;100980.30;;;23.79;34.49
69239;BME280;56349;51.816;-0.026;2023-08-06T09:03:30;100983.38;;;23.46;34.54
69239;BME280;56349;51.816;-0.026;2023-08-06T09:05:44;100985.03;;;23.65;34.59
69239;BME280;56349;51.816;-0.026;2023-08-06T09:08:08;100984.54;;;23.35;34.58
69239;BME280;56349;51.816;-0.026;2023-08-06T09:10:35;100984.06;;;23.58;34.59
69239;BME280;56349;51.816;-0.026;2023-08-06T09:13:00;100986.48;;;23.55;34.60
69239;BME280;56349;51.816;-0.026;2023-08-06T09:15:27;100987.80;;;23.69;34.65
69239;BME280;56349;51.816;-0.026;2023-08-06T09:17:53;100988.56;;;23.38;34.72
69239;BME280;56349;51.816;-0.026;2023-08-06T09:20:18;100992.87;;;23.56;34.75
69239;BME280;56349;51.816;-0.026;2023-08-06T09:22:43;100997.57;;;23.51;34.78
69239;BME280;56349;51.816;-0.026;2023-08-06T09:25:08;100993.74;;;23.23;34.83
69239;BME280;56349;51.816;-0.026;2023-08-06T09:27:35;100999.63;;;23.40;34.88
69239;BME280;56349;51.816;-0.026;2023-08-06T09:30:00;100998.26;;;23.36;34.92
69239;BME280;56349;51.816;-0.026;2023-08-06T09:32:26;101002.25;;;23.31;34.96
69239;BME280;56349;51.816;-0.026;2023-08-06T09:34:56;101005.26;;;23.25;35.01
69239;BME280;56349;51.816;-0.026;2023-08-06T09:37:18;101005.78;;;23.21;35.05
69239;BME280;56349;51.816;-0.026;2023-08-06T09:39:44;101009.08;;;23.19;35.06
69239;BME280;56349;51.816;-0.026;2023-08-06T09:42:10;101005.12;;;23.15;35.10
69239;BME280;56349;51.816;-0.026;2023-08-06T09:44:36;101010.62;;;23.11;35.12
69239;BME280;56349;51.816;-0.026;2023-08-06T09:47:03;101008.57;;;23.08;35.18
69239;BME280;56349;51.816;-0.026;2023-08-06T09:49:28;101009.44;;;23.06;35.18
69239;BME280;56349;51.816;-0.026;2023-08-06T09:51:53;101007.30;;;23.03;35.21
69239;BME280;56349;51.816;-0.026;2023-08-06T09:54:18;101012.93;;;23.01;35.22
69239;BME280;56349;51.816;-0.026;2023-08-06T09:56:43;101011.94;;;22.99;35.25
69239;BME280;56349;51.816;-0.026;2023-08-06T09:59:09;101015.71;;;23.00;35.22
69239;BME280;56349;51.816;-0.026;2023-08-06T10:01:35;101009.46;;;22.96;35.24
69239;BME280;56349;51.816;-0.026;2023-08-06T10:04:03;101012.56;;;23.19;35.27
69239;BME280;56349;51.816;-0.026;2023-08-06T10:06:28;101019.33;;;22.92;35.26
69239;BME280;56349;51.816;-0.026;2023-08-06T10:08:52;101020.26;;;22.91;35.28
69239;BME280;56349;51.816;-0.026;2023-08-06T10:11:20;101022.87;;;22.90;35.29
69239;BME280;56349;51.816;-0.026;2023-08-06T10:13:44;101023.91;;;22.87;35.29
69239;BME280;56349;51.816;-0.026;2023-08-06T10:16:09;101025.30;;;22.85;35.32
69239;BME280;56349;51.816;-0.026;2023-08-06T10:18:36;101032.23;;;22.84;35.31
69239;BME280;56349;51.816;-0.026;2023-08-06T10:21:00;101027.48;;;22.83;35.30
69239;BME280;56349;51.816;-0.026;2023-08-06T10:23:33;101034.13;;;23.09;35.32
69239;BME280;56349;51.816;-0.026;2023-08-06T10:25:54;101032.87;;;22.82;35.32
69239;BME280;56349;51.816;-0.026;2023-08-06T10:28:16;101032.80;;;22.83;35.31
69239;BME280;56349;51.816;-0.026;2023-08-06T10:30:43;101035.21;;;22.85;35.28
69239;BME280;56349;51.816;-0.026;2023-08-06T10:33:07;101027.31;;;22.85;35.27
69239;BME280;56349;51.816;-0.026;2023-08-06T10:35:37;101031.09;;;22.85;35.28
69239;BME280;56349;51.816;-0.026;2023-08-06T10:38:03;101034.91;;;22.86;35.26
69239;BME280;56349;51.816;-0.026;2023-08-06T10:40:24;101031.28;;;23.12;35.24
69239;BME280;56349;51.816;-0.026;2023-08-06T10:42:50;101037.47;;;22.85;35.25
69239;BME280;56349;51.816;-0.026;2023-08-06T10:45:17;101040.51;;;23.34;35.24
69239;BME280;56349;51.816;-0.026;2023-08-06T10:47:42;101040.04;;;22.85;35.24
69239;BME280;56349;51.816;-0.026;2023-08-06T10:50:10;101037.49;;;22.90;35.17
69239;BME280;56349;51.816;-0.026;2023-08-06T10:52:32;101030.63;;;23.16;35.17
69239;BME280;56349;51.816;-0.026;2023-08-06T10:54:58;101031.08;;;23.36;35.17
69239;BME280;56349;51.816;-0.026;2023-08-06T10:57:24;101037.76;;;22.88;35.17
69239;BME280;56349;51.816;-0.026;2023-08-06T10:59:49;101031.58;;;23.37;35.17
69239;BME280;56349;51.816;-0.026;2023-08-06T11:02:15;101034.15;;;23.15;35.15
69239;BME280;56349;51.816;-0.026;2023-08-06T11:04:41;101032.79;;;22.89;35.13
69239;BME280;56349;51.816;-0.026;2023-08-06T11:07:07;101036.57;;;22.90;35.11
69239;BME280;56349;51.816;-0.026;2023-08-06T11:09:32;101040.44;;;22.91;35.09
69239;BME280;56349;51.816;-0.026;2023-08-06T11:11:58;101037.29;;;22.91;35.09
69239;BME280;56349;51.816;-0.026;2023-08-06T11:14:24;101037.79;;;22.69;35.07
69239;BME280;56349;51.816;-0.026;2023-08-06T11:16:50;101038.14;;;22.91;35.08
69239;BME280;56349;51.816;-0.026;2023-08-06T11:19:15;101037.01;;;22.93;35.03
69239;BME280;56349;51.816;-0.026;2023-08-06T11:21:42;101029.47;;;22.94;35.03
69239;BME280;56349;51.816;-0.026;2023-08-06T11:24:07;101030.53;;;22.94;35.02
69239;BME280;56349;51.816;-0.026;2023-08-06T11:26:33;101034.29;;;22.95;34.99
69239;BME280;56349;51.816;-0.026;2023-08-06T11:28:59;101033.32;;;23.00;34.96
69239;BME280;56349;51.816;-0.026;2023-08-06T11:31:25;101028.78;;;23.05;35.04
69239;BME280;56349;51.816;-0.026;2023-08-06T11:33:51;101042.96;;;23.13;35.08
69239;BME280;56349;51.816;-0.026;2023-08-06T11:36:29;101035.58;;;23.18;35.21
69239;BME280;56349;51.816;-0.026;2023-08-06T11:38:42;101036.28;;;23.24;35.08
69239;BME280;56349;51.816;-0.026;2023-08-06T11:41:08;101022.33;;;23.35;35.11
69239;BME280;56349;51.816;-0.026;2023-08-06T11:43:34;101032.37;;;23.17;35.35
69239;BME280;56349;51.816;-0.026;2023-08-06T11:46:00;101029.00;;;23.21;35.59
69239;BME280;56349;51.816;-0.026;2023-08-06T11:48:26;101028.67;;;23.00;35.76
69239;BME280;56349;51.816;-0.026;2023-08-06T11:50:54;101024.40;;;23.33;35.75
69239;BME280;56349;51.816;-0.026;2023-08-06T11:53:18;101031.04;;;23.60;35.62
69239;BME280;56349;51.816;-0.026;2023-08-06T11:55:44;101028.46;;;23.62;34.83
69239;BME280;56349;51.816;-0.026;2023-08-06T11:58:10;101040.51;;;23.64;34.06
69239;BME280;56349;51.816;-0.026;2023-08-06T12:00:36;101031.17;;;23.66;33.33
69239;BME280;56349;51.816;-0.026;2023-08-06T12:03:01;101041.30;;;23.69;32.89
69239;BME280;56349;51.816;-0.026;2023-08-06T12:05:30;101038.74;;;23.72;32.29
69239;BME280;56349;51.816;-0.026;2023-08-06T12:07:56;101050.32;;;23.53;32.10
69239;BME280;56349;51.816;-0.026;2023-08-06T12:10:19;101041.88;;;23.57;31.65
69239;BME280;56349;51.816;-0.026;2023-08-06T12:12:45;101049.37;;;23.83;31.36
69239;BME280;56349;51.816;-0.026;2023-08-06T12:15:10;101040.48;;;23.85;31.05
69239;BME280;56349;51.816;-0.026;2023-08-06T12:17:36;101034.73;;;23.65;30.75
69239;BME280;56349;51.816;-0.026;2023-08-06T12:22:27;101032.79;;;23.70;30.71
69239;BME280;56349;51.816;-0.026;2023-08-06T12:24:53;101038.51;;;23.73;30.59
69239;BME280;56349;51.816;-0.026;2023-08-06T12:27:19;101040.66;;;23.71;30.44
69239;BME280;56349;51.816;-0.026;2023-08-06T12:29:48;101042.61;;;23.71;30.36
69239;BME280;56349;51.816;-0.026;2023-08-06T12:32:10;101039.90;;;23.69;30.45
69239;BME280;56349;51.816;-0.026;2023-08-06T12:34:35;101030.57;;;23.65;30.23